createdAt,value
2022-09-22T00:00:39.976Z,102087.72
2022-09-22T00:01:42.266Z,102094.75
2022-09-22T00:02:45.796Z,102092.09
2022-09-22T00:03:50.218Z,102095.72
2022-09-22T00:04:53.295Z,102094.59
2022-09-22T00:06:03.508Z,102093.91
2022-09-22T00:07:07.888Z,102093.75
2022-09-22T00:08:09.980Z,102093.75
2022-09-22T00:09:16.532Z,102095.44
2022-09-22T00:10:21.294Z,102096.41
2022-09-22T00:11:29.190Z,102091.75
2022-09-22T00:12:31.218Z,102090.09
2022-09-22T00:13:35.285Z,102092.78
2022-09-22T00:14:37.415Z,102093.75
2022-09-22T00:15:47.280Z,102096.56
2022-09-22T00:16:52.729Z,102092.25
2022-09-22T00:17:54.809Z,102086.22
2022-09-22T00:18:57.873Z,102084.56
2022-09-22T00:20:00.958Z,102081.22
2022-09-22T00:21:08.104Z,102087.50
2022-09-22T00:22:12.467Z,102093.00
2022-09-22T00:23:14.576Z,102085.00
2022-09-22T00:24:18.816Z,102094.16
2022-09-22T00:25:20.818Z,102084.47
2022-09-22T00:26:25.374Z,102077.66
2022-09-22T00:27:28.404Z,102081.97
2022-09-22T00:28:32.846Z,102089.28
2022-09-22T00:29:34.933Z,102080.47
2022-09-22T00:30:41.618Z,102089.44
2022-09-22T00:31:45.388Z,102079.78
2022-09-22T00:32:48.442Z,102085.09
2022-09-22T00:33:51.892Z,102082.59
2022-09-22T00:34:54.855Z,102084.41
2022-09-22T00:35:57.859Z,102087.25
2022-09-22T00:37:00.908Z,102079.25
2022-09-22T00:38:05.689Z,102075.75
2022-09-22T00:39:08.962Z,102084.56
2022-09-22T00:40:11.173Z,102080.25
2022-09-22T00:41:18.893Z,102079.41
2022-09-22T00:42:21.143Z,102078.56
2022-09-22T00:43:27.185Z,102083.88
2022-09-22T00:44:38.980Z,102073.38
2022-09-22T00:45:42.422Z,102076.06
2022-09-22T00:46:47.661Z,102077.75
2022-09-22T00:47:51.117Z,102070.88
2022-09-22T00:48:57.277Z,102080.53
2022-09-22T00:50:08.218Z,102077.22
2022-09-22T00:51:14.415Z,102079.03
2022-09-22T00:52:20.967Z,102075.53
2022-09-22T00:53:26.295Z,102079.19
2022-09-22T00:54:28.525Z,102081.16
2022-09-22T00:55:35.974Z,102075.16
2022-09-22T00:56:44.568Z,102072.47
2022-09-22T00:57:49.037Z,102069.97
2022-09-22T00:58:55.482Z,102074.44
2022-09-22T00:59:59.253Z,102066.63
2022-09-22T01:01:02.120Z,102073.91
2022-09-22T01:02:05.343Z,102067.78
2022-09-22T01:03:12.090Z,102070.88
2022-09-22T01:04:16.796Z,102070.44
2022-09-22T01:05:20.822Z,102070.59
2022-09-22T01:06:28.446Z,102070.44
2022-09-22T01:07:31.126Z,102067.78
2022-09-22T01:08:37.618Z,102060.91
2022-09-22T01:09:39.690Z,102060.59
2022-09-22T01:10:43.328Z,102049.59
2022-09-22T01:11:45.438Z,102061.47
2022-09-22T01:12:56.860Z,102040.41
2022-09-22T01:14:07.258Z,102050.75
2022-09-22T01:15:25.561Z,102055.44
2022-09-22T01:16:44.890Z,102057.28
2022-09-22T01:18:01.111Z,102059.09
2022-09-22T01:19:34.106Z,102053.78
2022-09-22T01:21:21.259Z,102052.94
2022-09-22T01:22:57.922Z,102063.59
2022-09-22T01:24:32.053Z,102054.91
2022-09-22T01:26:06.680Z,102052.25
2022-09-22T01:27:31.209Z,102046.09
2022-09-22T01:28:54.579Z,102044.41
2022-09-22T01:30:17.388Z,102044.03
2022-09-22T01:31:25.104Z,102045.56
2022-09-22T01:32:31.689Z,102045.72
2022-09-22T01:33:44.602Z,102044.03
2022-09-22T01:34:56.531Z,102047.69
2022-09-22T01:36:09.770Z,102044.34
2022-09-22T01:37:17.378Z,102033.00
2022-09-22T01:38:31.498Z,102043.81
2022-09-22T01:39:39.465Z,102033.16
2022-09-22T01:40:50.367Z,102033.31
2022-09-22T01:41:59.105Z,102036.00
2022-09-22T01:43:11.227Z,102030.66
2022-09-22T01:44:18.671Z,102028.16
2022-09-22T01:45:25.223Z,102031.50
2022-09-22T01:46:31.111Z,102030.66
2022-09-22T01:47:40.749Z,102032.47
2022-09-22T01:48:48.189Z,102030.81
2022-09-22T01:49:54.433Z,102031.66
2022-09-22T01:51:00.729Z,102033.63
2022-09-22T01:52:10.763Z,102030.13
2022-09-22T01:53:17.352Z,102028.25
2022-09-22T01:54:26.102Z,102037.56
2022-09-22T01:55:32.093Z,102028.94
2022-09-22T01:56:37.837Z,102013.19
2022-09-22T01:57:46.208Z,102029.22
2022-09-22T01:58:53.956Z,102035.53
2022-09-22T02:00:01.772Z,102032.88
2022-09-22T02:01:14.398Z,102032.03
2022-09-22T02:02:23.906Z,102025.50
2022-09-22T02:03:36.344Z,102035.53
2022-09-22T02:04:42.309Z,102036.53
2022-09-22T02:05:51.919Z,102032.88
2022-09-22T02:06:58.902Z,102029.53
2022-09-22T02:08:06.671Z,102031.22
2022-09-22T02:09:11.325Z,102032.19
2022-09-22T02:10:18.891Z,102032.50
2022-09-22T02:11:21.761Z,102031.66
2022-09-22T02:12:24.965Z,102033.63
2022-09-22T02:13:27.049Z,102024.13
2022-09-22T02:14:30.612Z,102026.09
2022-09-22T02:15:51.144Z,102023.59
2022-09-22T02:16:56.092Z,102018.59
2022-09-22T02:18:03.009Z,102018.75
2022-09-22T02:19:13.288Z,102015.38
2022-09-22T02:20:15.897Z,102013.72
2022-09-22T02:21:20.380Z,102016.38
2022-09-22T02:22:22.562Z,102014.53
2022-09-22T02:23:25.916Z,102024.38
2022-09-22T02:24:30.113Z,102017.34
2022-09-22T02:25:33.880Z,102016.50
2022-09-22T02:26:36.817Z,102016.66
2022-09-22T02:27:41.704Z,102018.66
2022-09-22T02:28:45.143Z,102017.97
2022-09-22T02:29:52.787Z,102017.97
2022-09-22T02:31:18.653Z,102023.28
2022-09-22T02:32:22.255Z,102021.75
2022-09-22T02:33:26.541Z,102019.94
2022-09-22T02:34:29.802Z,102019.94
2022-09-22T02:35:35.129Z,102016.44
2022-09-22T02:36:51.813Z,102020.09
2022-09-22T02:38:02.563Z,102014.09
2022-09-22T02:39:09.840Z,102024.56
2022-09-22T02:40:22.397Z,102027.22
2022-09-22T02:41:33.646Z,102017.59
2022-09-22T02:42:42.101Z,102017.59
2022-09-22T02:43:51.823Z,102022.53
2022-09-22T02:44:59.480Z,102018.56
2022-09-22T02:46:16.284Z,102015.22
2022-09-22T02:47:25.258Z,102003.22
2022-09-22T02:48:32.092Z,102014.53
2022-09-22T02:49:34.666Z,102023.47
2022-09-22T02:50:37.992Z,102012.19
2022-09-22T02:51:40.334Z,102014.84
2022-09-22T02:52:43.388Z,102014.16
2022-09-22T02:53:45.741Z,102015.97
2022-09-22T02:54:48.786Z,102015.13
2022-09-22T02:55:50.960Z,102011.66
2022-09-22T02:56:54.519Z,102008.13
2022-09-22T02:57:56.667Z,102011.78
2022-09-22T02:58:59.714Z,102015.41
2022-09-22T03:00:02.198Z,102016.41
2022-09-22T03:01:05.542Z,102013.75
2022-09-22T03:02:07.648Z,102012.06
2022-09-22T03:03:12.283Z,102009.56
2022-09-22T03:04:14.375Z,102018.38
2022-09-22T03:05:17.663Z,102007.06
2022-09-22T03:06:19.714Z,102008.75
2022-09-22T03:07:22.775Z,102012.22
2022-09-22T03:08:24.895Z,102007.06
2022-09-22T03:09:28.028Z,102005.25
2022-09-22T03:10:30.122Z,101999.09
2022-09-22T03:11:33.186Z,102007.06
2022-09-22T03:12:35.283Z,102006.22
2022-09-22T03:13:38.402Z,102007.06
2022-09-22T03:14:40.531Z,102000.09
2022-09-22T03:15:44.266Z,101996.41
2022-09-22T03:16:46.372Z,102005.41
2022-09-22T03:17:49.462Z,102000.91
2022-09-22T03:18:53.042Z,101999.25
2022-09-22T03:19:56.132Z,102001.91
2022-09-22T03:20:58.196Z,102000.09
2022-09-22T03:22:01.293Z,101996.56
2022-09-22T03:23:03.440Z,101996.56
2022-09-22T03:24:07.094Z,101994.06
2022-09-22T03:25:10.634Z,101995.72
2022-09-22T03:26:13.712Z,101997.41
2022-09-22T03:27:15.861Z,101994.91
2022-09-22T03:28:19.414Z,101997.56
2022-09-22T03:29:21.691Z,101994.91
2022-09-22T03:30:24.852Z,101992.41
2022-09-22T03:31:27.069Z,102000.22
2022-09-22T03:32:30.203Z,101990.03
2022-09-22T03:33:32.250Z,101997.72
2022-09-22T03:34:36.731Z,101997.34
2022-09-22T03:35:39.147Z,101980.00
2022-09-22T03:36:42.407Z,101999.53
2022-09-22T03:37:45.630Z,101995.06
2022-09-22T03:38:48.698Z,101992.41
2022-09-22T03:39:50.781Z,101990.56
2022-09-22T03:40:54.644Z,101994.06
2022-09-22T03:41:56.787Z,101990.03
2022-09-22T03:42:59.958Z,101991.72
2022-09-22T03:44:02.585Z,101994.22
2022-09-22T03:45:06.398Z,102008.47
2022-09-22T03:46:09.579Z,101988.22
2022-09-22T03:47:11.705Z,101992.69
2022-09-22T03:48:14.980Z,101991.03
2022-09-22T03:49:18.014Z,101991.03
2022-09-22T03:50:21.790Z,101985.00
2022-09-22T03:51:24.985Z,101999.16
2022-09-22T03:52:27.422Z,101990.31
2022-09-22T03:53:30.521Z,101992.13
2022-09-22T03:54:32.615Z,101986.16
2022-09-22T03:55:35.831Z,101986.97
2022-09-22T03:56:38.575Z,101983.66
2022-09-22T03:57:43.922Z,101976.50
2022-09-22T03:58:46.085Z,101979.31
2022-09-22T03:59:49.220Z,101981.00
2022-09-22T04:00:51.428Z,101981.13
2022-09-22T04:01:58.038Z,101979.47
2022-09-22T04:03:00.392Z,101976.09
2022-09-22T04:04:04.005Z,101975.28
2022-09-22T04:05:07.344Z,101984.22
2022-09-22T04:06:12.101Z,101980.72
2022-09-22T04:07:14.165Z,101981.56
2022-09-22T04:08:17.245Z,101979.91
2022-09-22T04:09:19.374Z,101980.72
2022-09-22T04:10:22.502Z,101977.41
2022-09-22T04:11:24.668Z,101977.56
2022-09-22T04:12:27.749Z,101980.06
2022-09-22T04:13:30.081Z,101976.16
2022-09-22T04:14:33.164Z,101986.50
2022-09-22T04:15:36.450Z,101983.84
2022-09-22T04:16:42.431Z,101978.69
2022-09-22T04:17:47.166Z,101983.16
2022-09-22T04:18:49.221Z,101979.53
2022-09-22T04:19:52.306Z,101974.50
2022-09-22T04:20:57.795Z,101976.16
2022-09-22T04:22:02.582Z,101973.50
2022-09-22T04:23:04.896Z,101970.84
2022-09-22T04:24:08.419Z,101975.31
2022-09-22T04:25:10.715Z,101974.50
2022-09-22T04:26:13.820Z,101967.34
2022-09-22T04:27:19.871Z,101974.50
2022-09-22T04:28:23.552Z,101982.47
2022-09-22T04:29:25.759Z,101969.19
2022-09-22T04:30:28.935Z,101971.97
2022-09-22T04:31:31.215Z,101974.50
2022-09-22T04:32:34.342Z,101972.81
2022-09-22T04:33:36.725Z,101964.84
2022-09-22T04:34:39.775Z,101971.84
2022-09-22T04:35:41.909Z,101967.34
2022-09-22T04:36:44.979Z,101971.84
2022-09-22T04:37:48.450Z,101973.50
2022-09-22T04:38:51.505Z,101971.84
2022-09-22T04:39:55.570Z,101970.16
2022-09-22T04:40:58.173Z,101970.16
2022-09-22T04:42:01.310Z,101969.19
2022-09-22T04:43:03.544Z,101969.31
2022-09-22T04:44:06.644Z,101970.31
2022-09-22T04:45:09.832Z,101965.84
2022-09-22T04:46:12.971Z,101970.16
2022-09-22T04:47:15.165Z,101971.16
2022-09-22T04:48:18.324Z,101967.66
2022-09-22T04:49:20.358Z,101977.44
2022-09-22T04:50:24.404Z,101967.81
2022-09-22T04:51:26.632Z,101971.47
2022-09-22T04:52:29.745Z,101974.94
2022-09-22T04:53:33.495Z,101969.78
2022-09-22T04:54:36.819Z,101958.59
2022-09-22T04:55:39.519Z,101963.38
2022-09-22T04:56:42.681Z,101968.41
2022-09-22T04:57:47.812Z,101973.72
2022-09-22T04:58:50.970Z,101974.53
2022-09-22T04:59:53.418Z,101967.03
2022-09-22T05:00:56.729Z,101967.56
2022-09-22T05:01:59.371Z,101970.38
2022-09-22T05:03:03.490Z,101974.84
2022-09-22T05:04:05.720Z,101966.88
2022-09-22T05:05:09.718Z,101971.34
2022-09-22T05:06:11.920Z,101971.50
2022-09-22T05:07:15.083Z,101971.50
2022-09-22T05:08:17.296Z,101976.81
2022-09-22T05:09:21.981Z,101969.69
2022-09-22T05:10:25.291Z,101966.16
2022-09-22T05:11:28.433Z,101971.50
2022-09-22T05:12:30.992Z,101974.28
2022-09-22T05:13:34.030Z,101976.00
2022-09-22T05:14:36.101Z,101973.34
2022-09-22T05:15:39.152Z,101976.94
2022-09-22T05:16:42.039Z,101974.28
2022-09-22T05:17:48.577Z,101976.94
2022-09-22T05:18:50.639Z,101967.47
2022-09-22T05:19:55.916Z,101969.13
2022-09-22T05:20:58.110Z,101978.91
2022-09-22T05:22:01.713Z,101973.59
2022-09-22T05:23:03.749Z,101981.56
2022-09-22T05:24:07.236Z,101981.56
2022-09-22T05:25:14.285Z,101983.41
2022-09-22T05:26:16.375Z,101975.59
2022-09-22T05:27:19.448Z,101970.13
2022-09-22T05:28:24.385Z,101977.94
2022-09-22T05:29:28.156Z,101978.91
2022-09-22T05:30:31.037Z,101982.25
2022-09-22T05:31:34.241Z,101975.13
2022-09-22T05:32:36.315Z,101971.50
2022-09-22T05:33:41.901Z,101981.16
2022-09-22T05:34:47.047Z,101976.66
2022-09-22T05:35:50.219Z,101981.97
2022-09-22T05:36:52.273Z,101973.84
2022-09-22T05:37:55.352Z,101977.34
2022-09-22T05:38:57.552Z,101984.34
2022-09-22T05:40:00.775Z,101982.50
2022-09-22T05:41:05.466Z,101988.66
2022-09-22T05:42:10.970Z,101982.34
2022-09-22T05:43:14.828Z,101979.03
2022-09-22T05:44:17.075Z,101991.03
2022-09-22T05:45:22.038Z,101981.09
2022-09-22T05:46:24.312Z,101977.59
2022-09-22T05:47:27.396Z,101976.47
2022-09-22T05:48:31.453Z,101978.13
2022-09-22T05:49:34.742Z,101979.53
2022-09-22T05:50:36.795Z,101982.88
2022-09-22T05:51:39.870Z,101979.06
2022-09-22T05:52:41.982Z,101976.94
2022-09-22T05:53:45.050Z,101967.31
2022-09-22T05:54:47.091Z,101971.34
2022-09-22T05:55:50.152Z,101977.34
2022-09-22T05:56:53.591Z,101978.03
2022-09-22T05:57:58.460Z,101975.91
2022-09-22T05:59:00.517Z,101978.41
2022-09-22T06:00:04.763Z,101976.47
2022-09-22T06:01:14.829Z,101978.97
2022-09-22T06:02:25.796Z,101974.31
2022-09-22T06:03:29.603Z,101978.50
2022-09-22T06:04:31.619Z,101984.50
2022-09-22T06:05:37.890Z,101979.88
2022-09-22T06:06:41.935Z,101981.41
2022-09-22T06:07:44.241Z,101978.75
2022-09-22T06:08:49.126Z,101974.81
2022-09-22T06:09:52.076Z,101985.13
2022-09-22T06:10:55.139Z,101982.31
2022-09-22T06:11:58.899Z,101981.16
2022-09-22T06:13:02.825Z,101985.34
2022-09-22T06:14:04.925Z,101979.88
2022-09-22T06:15:08.894Z,101985.91
2022-09-22T06:16:10.969Z,101984.75
2022-09-22T06:17:14.624Z,101979.97
2022-09-22T06:18:24.192Z,101985.97
2022-09-22T06:19:29.635Z,101990.81
2022-09-22T06:20:31.954Z,101987.88
2022-09-22T06:21:35.265Z,101986.03
2022-09-22T06:22:37.371Z,101987.41
2022-09-22T06:23:43.032Z,101987.94
2022-09-22T06:24:45.234Z,101989.31
2022-09-22T06:25:48.357Z,101989.03
2022-09-22T06:26:50.638Z,101987.00
2022-09-22T06:28:02.282Z,101986.19
2022-09-22T06:29:04.434Z,101995.09
2022-09-22T06:30:11.149Z,101990.25
2022-09-22T06:31:15.276Z,101991.66
2022-09-22T06:32:19.483Z,101995.84
2022-09-22T06:33:23.943Z,101988.34
2022-09-22T06:34:27.238Z,101999.53
2022-09-22T06:35:31.215Z,101983.88
2022-09-22T06:36:34.076Z,101997.94
2022-09-22T06:37:38.973Z,101997.47
2022-09-22T06:38:41.016Z,101993.66
2022-09-22T06:39:44.172Z,101992.38
2022-09-22T06:40:46.683Z,101995.41
2022-09-22T06:41:50.190Z,101996.75
2022-09-22T06:42:57.155Z,101992.78
2022-09-22T06:44:01.864Z,101989.78
2022-09-22T06:45:04.780Z,101997.31
2022-09-22T06:46:13.728Z,102002.03
2022-09-22T06:47:15.958Z,101993.03
2022-09-22T06:48:20.365Z,101994.06
2022-09-22T06:49:22.458Z,101998.94
2022-09-22T06:50:28.007Z,102004.63
2022-09-22T06:51:33.052Z,102003.19
2022-09-22T06:52:38.460Z,102003.69
2022-09-22T06:53:40.655Z,102004.91
2022-09-22T06:54:43.842Z,102001.75
2022-09-22T06:55:46.498Z,102007.44
2022-09-22T06:56:49.701Z,102006.09
2022-09-22T06:57:52.145Z,102004.78
2022-09-22T06:59:09.916Z,102000.66
2022-09-22T07:00:17.969Z,102011.50
2022-09-22T07:01:20.236Z,102006.53
2022-09-22T07:02:28.221Z,102018.53
2022-09-22T07:03:33.212Z,102008.88
2022-09-22T07:04:36.265Z,102005.75
2022-09-22T07:05:38.319Z,102005.09
2022-09-22T07:06:42.731Z,102007.25
2022-09-22T07:07:44.949Z,102000.78
2022-09-22T07:08:50.097Z,102011.63
2022-09-22T07:09:52.182Z,101993.09
2022-09-22T07:10:56.817Z,102009.31
2022-09-22T07:12:00.397Z,102011.28
2022-09-22T07:13:02.831Z,102007.97
2022-09-22T07:14:06.730Z,102008.31
2022-09-22T07:15:10.425Z,102014.66
2022-09-22T07:16:16.349Z,102009.66
2022-09-22T07:17:20.338Z,102010.81
2022-09-22T07:18:22.391Z,102003.13
2022-09-22T07:19:25.403Z,101998.97
2022-09-22T07:20:28.933Z,102004.63
2022-09-22T07:21:35.242Z,102002.28
2022-09-22T07:22:39.510Z,101999.94
2022-09-22T07:23:43.577Z,102002.94
2022-09-22T07:24:47.011Z,102009.47
2022-09-22T07:25:56.354Z,101998.44
2022-09-22T07:27:04.180Z,102007.63
2022-09-22T07:28:06.385Z,102002.63
2022-09-22T07:29:13.209Z,102005.63
2022-09-22T07:30:15.476Z,102003.28
2022-09-22T07:31:21.391Z,102002.06
2022-09-22T07:32:28.345Z,101998.75
2022-09-22T07:33:30.551Z,101999.06
2022-09-22T07:34:33.678Z,102000.38
2022-09-22T07:35:37.905Z,101988.00
2022-09-22T07:36:40.962Z,101962.59
2022-09-22T07:37:46.317Z,102000.31
2022-09-22T07:38:50.492Z,102000.81
2022-09-22T07:39:53.572Z,102007.94
2022-09-22T07:40:55.712Z,102002.91
2022-09-22T07:41:58.817Z,101998.06
2022-09-22T07:43:00.941Z,101981.03
2022-09-22T07:44:18.394Z,102001.16
2022-09-22T07:45:23.619Z,102000.44
2022-09-22T07:46:28.142Z,101995.41
2022-09-22T07:47:49.079Z,101998.25
2022-09-22T07:48:52.014Z,101994.47
2022-09-22T07:49:54.193Z,102002.81
2022-09-22T07:51:00.223Z,102000.44
2022-09-22T07:52:02.368Z,102005.09
2022-09-22T07:53:05.484Z,101994.84
2022-09-22T07:54:07.809Z,101997.00
2022-09-22T07:55:10.985Z,101996.09
2022-09-22T07:56:15.213Z,101999.91
2022-09-22T07:57:18.275Z,101995.03
2022-09-22T07:58:21.219Z,101998.00
2022-09-22T07:59:24.611Z,101993.81
2022-09-22T08:00:33.044Z,101994.09
2022-09-22T08:01:39.737Z,102000.38
2022-09-22T08:02:44.561Z,101995.28
2022-09-22T08:03:47.255Z,101996.78
2022-09-22T08:04:50.391Z,101997.56
2022-09-22T08:05:54.710Z,102000.34
2022-09-22T08:06:57.962Z,101997.09
2022-09-22T08:08:02.344Z,102005.25
2022-09-22T08:09:08.196Z,102002.66
2022-09-22T08:10:13.584Z,102008.28
2022-09-22T08:11:19.042Z,101999.72
2022-09-22T08:12:21.534Z,101998.13
2022-09-22T08:13:25.225Z,102002.78
2022-09-22T08:14:28.425Z,102001.19
2022-09-22T08:15:31.540Z,102000.44
2022-09-22T08:16:39.599Z,101997.19
2022-09-22T08:17:41.902Z,101999.16
2022-09-22T08:18:45.000Z,101997.75
2022-09-22T08:19:48.072Z,101994.34
2022-09-22T08:20:50.242Z,102007.00
2022-09-22T08:21:54.900Z,102002.91
2022-09-22T08:23:03.131Z,101996.97
2022-09-22T08:24:07.194Z,102002.63
2022-09-22T08:25:12.462Z,102006.41
2022-09-22T08:26:15.503Z,102000.66
2022-09-22T08:27:19.117Z,101999.91
2022-09-22T08:28:21.460Z,101996.84
2022-09-22T08:29:24.932Z,102001.66
2022-09-22T08:30:26.974Z,102009.16
2022-09-22T08:31:30.607Z,102003.38
2022-09-22T08:32:36.569Z,102009.03
2022-09-22T08:33:40.787Z,102004.94
2022-09-22T08:34:43.896Z,102005.41
2022-09-22T08:35:54.027Z,102005.66
2022-09-22T08:36:57.172Z,102003.41
2022-09-22T08:37:59.257Z,102004.69
2022-09-22T08:39:03.691Z,102006.81
2022-09-22T08:40:07.119Z,102007.88
2022-09-22T08:41:24.101Z,102006.28
2022-09-22T08:42:28.799Z,102012.09
2022-09-22T08:43:31.931Z,102010.31
2022-09-22T08:44:39.755Z,102009.28
2022-09-22T08:45:46.243Z,102007.47
2022-09-22T08:46:50.730Z,102007.72
2022-09-22T08:48:15.906Z,102013.56
2022-09-22T08:49:43.941Z,102010.06
2022-09-22T08:51:10.775Z,102012.81
2022-09-22T08:52:20.835Z,102021.13
2022-09-22T08:53:23.497Z,101995.00
2022-09-22T08:54:29.186Z,102014.56
2022-09-22T08:55:31.432Z,102015.81
2022-09-22T08:56:38.326Z,102017.09
2022-09-22T08:57:59.656Z,102015.53
2022-09-22T08:59:04.478Z,102013.09
2022-09-22T09:00:13.414Z,102020.56
2022-09-22T09:01:29.786Z,102011.44
2022-09-22T09:02:42.539Z,102012.31
2022-09-22T09:04:01.035Z,102009.84
2022-09-22T09:05:31.657Z,102012.78
2022-09-22T09:06:45.009Z,102013.84
2022-09-22T09:07:58.787Z,102014.94
2022-09-22T09:09:23.550Z,102012.47
2022-09-22T09:10:45.308Z,102012.69
2022-09-22T09:12:03.345Z,102010.22
2022-09-22T09:13:32.244Z,102011.47
2022-09-22T09:15:00.477Z,102012.53
2022-09-22T09:16:16.049Z,102005.28
2022-09-22T09:17:22.982Z,102012.34
2022-09-22T09:18:32.319Z,102016.31
2022-09-22T09:19:42.120Z,102015.06
2022-09-22T09:20:46.760Z,102014.66
2022-09-22T09:21:52.731Z,102018.63
2022-09-22T09:22:55.918Z,102012.00
2022-09-22T09:25:35.923Z,102015.53
2022-09-22T09:26:39.287Z,102015.13
2022-09-22T09:27:47.010Z,102013.69
2022-09-22T09:28:54.080Z,102012.47
2022-09-22T09:30:04.800Z,102006.66
2022-09-22T09:31:11.263Z,102010.19
2022-09-22T09:32:22.331Z,102010.59
2022-09-22T09:33:34.520Z,102005.19
2022-09-22T09:34:38.075Z,102005.47
2022-09-22T09:35:45.542Z,102006.69
2022-09-22T09:36:52.832Z,102006.50
2022-09-22T09:37:59.054Z,102005.91
2022-09-22T09:39:14.246Z,101994.06
2022-09-22T09:40:19.512Z,101992.81
2022-09-22T09:41:25.372Z,101996.97
2022-09-22T09:42:31.563Z,102008.19
2022-09-22T09:43:34.708Z,101995.72
2022-09-22T09:44:40.193Z,102001.31
2022-09-22T09:45:52.863Z,101993.63
2022-09-22T09:47:02.548Z,101998.44
2022-09-22T09:48:21.022Z,101989.09
2022-09-22T09:49:24.303Z,101993.25
2022-09-22T09:50:32.111Z,101991.97
2022-09-22T09:51:39.890Z,101987.84
2022-09-22T09:52:43.733Z,101992.81
2022-09-22T09:53:47.516Z,101989.69
2022-09-22T09:54:50.912Z,101993.88
2022-09-22T09:55:53.579Z,101986.78
2022-09-22T09:57:05.284Z,101988.25
2022-09-22T09:58:11.274Z,101989.91
2022-09-22T09:59:32.649Z,101985.34
2022-09-22T10:00:52.922Z,101989.69
2022-09-22T10:01:57.374Z,101992.56
2022-09-22T10:03:24.694Z,101990.69
2022-09-22T10:04:30.632Z,101983.84
2022-09-22T10:05:37.666Z,101984.06
2022-09-22T10:06:41.201Z,101988.19
2022-09-22T10:07:44.993Z,101988.81
2022-09-22T10:08:51.601Z,101991.91
2022-09-22T10:09:56.135Z,101979.47
2022-09-22T10:10:59.394Z,101979.25
2022-09-22T10:12:03.723Z,101980.66
2022-09-22T10:13:23.170Z,101978.41
2022-09-22T10:14:30.359Z,101983.59
2022-09-22T10:15:35.559Z,101980.66
2022-09-22T10:16:52.466Z,101979.22
2022-09-22T10:18:00.750Z,101981.47
2022-09-22T10:19:06.392Z,101975.25
2022-09-22T10:20:23.544Z,101971.94
2022-09-22T10:21:28.153Z,101975.25
2022-09-22T10:22:31.142Z,101977.53
2022-09-22T10:23:33.399Z,101977.50
2022-09-22T10:24:37.174Z,101974.38
2022-09-22T10:25:40.352Z,101980.19
2022-09-22T10:26:55.934Z,101976.22
2022-09-22T10:28:03.860Z,101975.19
2022-09-22T10:29:18.218Z,101968.72
2022-09-22T10:30:22.315Z,101971.81
2022-09-22T10:31:25.530Z,101968.91
2022-09-22T10:32:27.770Z,101968.47
2022-09-22T10:33:31.985Z,101971.78
2022-09-22T10:34:36.506Z,101968.66
2022-09-22T10:35:41.102Z,101962.84
2022-09-22T10:36:47.150Z,101961.34
2022-09-22T10:37:51.619Z,101958.19
2022-09-22T10:38:59.545Z,101952.78
2022-09-22T10:40:14.746Z,101959.84
2022-09-22T10:41:20.484Z,101963.16
2022-09-22T10:42:33.480Z,101965.41
2022-09-22T10:43:46.570Z,101964.97
2022-09-22T10:44:49.125Z,101958.31
2022-09-22T10:46:05.889Z,101958.09
2022-09-22T10:47:31.163Z,101953.28
2022-09-22T10:48:42.993Z,101952.88
2022-09-22T10:50:06.106Z,101952.66
2022-09-22T10:51:15.822Z,101949.50
2022-09-22T10:52:27.803Z,101952.81
2022-09-22T10:53:39.528Z,101946.34
2022-09-22T10:55:02.636Z,101953.00
2022-09-22T10:56:14.606Z,101956.09
2022-09-22T10:57:31.734Z,101954.81
2022-09-22T10:58:52.885Z,101956.88
2022-09-22T11:00:10.443Z,101948.56
2022-09-22T11:01:40.509Z,101949.31
2022-09-22T11:03:14.495Z,101949.47
2022-09-22T11:04:34.674Z,101948.00
2022-09-22T11:06:05.606Z,101945.06
2022-09-22T11:07:37.988Z,101948.56
2022-09-22T11:09:11.003Z,101952.25
2022-09-22T11:10:44.289Z,101952.41
2022-09-22T11:12:12.728Z,101947.00
2022-09-22T11:13:29.665Z,101954.97
2022-09-22T11:14:45.130Z,101953.34
2022-09-22T11:16:12.661Z,101951.09
2022-09-22T11:17:27.663Z,101945.47
2022-09-22T11:18:52.301Z,101953.75
2022-09-22T11:20:10.905Z,101950.13
2022-09-22T11:21:27.524Z,101948.66
2022-09-22T11:22:59.145Z,101947.53
2022-09-22T11:24:26.382Z,101940.16
2022-09-22T11:25:47.214Z,101935.75
2022-09-22T11:26:53.085Z,101939.66
2022-09-22T11:28:10.860Z,101941.09
2022-09-22T11:29:49.336Z,101940.41
2022-09-22T11:30:54.596Z,101946.19
2022-09-22T11:32:01.646Z,101934.94
2022-09-22T11:33:27.171Z,101936.34
2022-09-22T11:34:52.395Z,101937.84
2022-09-22T11:36:19.830Z,101942.53
2022-09-22T11:37:35.458Z,101936.81
2022-09-22T11:38:59.835Z,101931.28
2022-09-22T11:40:34.147Z,101932.47
2022-09-22T11:41:42.489Z,101932.38
2022-09-22T11:42:55.485Z,101929.34
2022-09-22T11:44:21.826Z,101942.31
2022-09-22T11:45:41.421Z,101927.13
2022-09-22T11:47:01.560Z,101933.59
2022-09-22T11:48:13.896Z,101932.31
2022-09-22T11:49:25.250Z,101935.03
2022-09-22T11:50:42.568Z,101921.22
2022-09-22T11:51:59.595Z,101921.34
2022-09-22T11:53:30.312Z,101920.59
2022-09-22T11:54:51.861Z,101915.25
2022-09-22T11:56:14.144Z,101919.34
2022-09-22T11:57:24.355Z,101912.81
2022-09-22T11:58:29.593Z,101900.16
2022-09-22T11:59:41.838Z,101909.34
2022-09-22T12:00:51.561Z,101913.06
2022-09-22T12:01:56.583Z,101912.34
2022-09-22T12:03:03.604Z,101912.75
2022-09-22T12:04:13.218Z,101907.94
2022-09-22T12:05:20.698Z,101903.09
2022-09-22T12:06:29.264Z,101911.59
2022-09-22T12:07:37.197Z,101901.63
2022-09-22T12:08:47.093Z,101899.53
2022-09-22T12:09:56.248Z,101897.41
2022-09-22T12:11:01.857Z,101895.50
2022-09-22T12:12:06.271Z,101894.25
2022-09-22T12:13:15.403Z,101897.56
2022-09-22T12:14:18.743Z,101899.19
2022-09-22T12:15:28.401Z,101901.44
2022-09-22T12:16:41.937Z,101880.56
2022-09-22T12:17:51.073Z,101900.41
2022-09-22T12:18:59.484Z,101898.66
2022-09-22T12:20:14.889Z,101889.09
2022-09-22T12:21:31.980Z,101893.59
2022-09-22T12:22:50.336Z,101887.16
2022-09-22T12:23:54.459Z,101889.84
2022-09-22T12:24:56.534Z,101886.06
2022-09-22T12:26:05.023Z,101886.53
2022-09-22T12:27:12.748Z,101889.34
2022-09-22T12:28:16.668Z,101884.00
2022-09-22T12:29:27.607Z,101884.31
2022-09-22T12:30:29.790Z,101879.78
2022-09-22T12:31:36.009Z,101884.81
2022-09-22T12:32:41.692Z,101876.91
2022-09-22T12:33:50.066Z,101875.84
2022-09-22T12:34:58.219Z,101881.88
2022-09-22T12:36:02.325Z,101871.66
2022-09-22T12:37:12.030Z,101872.25
2022-09-22T12:38:14.239Z,101873.91
2022-09-22T12:39:20.247Z,101878.88
2022-09-22T12:40:30.776Z,101868.94
2022-09-22T12:41:48.345Z,101868.25
2022-09-22T12:42:54.103Z,101872.66
2022-09-22T12:44:09.537Z,101858.28
2022-09-22T12:45:21.902Z,101866.41
2022-09-22T12:46:30.263Z,101857.22
2022-09-22T12:47:35.752Z,101857.81
2022-09-22T12:48:39.133Z,101859.50